createdAt,value
2023-01-11T00:02:04.887Z,1.12
2023-01-11T00:04:31.200Z,1.08
2023-01-11T00:06:57.600Z,1.16
2023-01-11T00:09:23.901Z,1.03
2023-01-11T00:11:50.161Z,1.05
2023-01-11T00:14:16.411Z,1.01
2023-01-11T00:16:42.684Z,1.16
2023-01-11T00:19:08.949Z,1.13
2023-01-11T00:21:35.238Z,1.12
2023-01-11T00:24:01.502Z,0.86
2023-01-11T00:26:27.759Z,0.88
2023-01-11T00:28:54.017Z,1.05
2023-01-11T00:31:20.292Z,0.98
2023-01-11T00:33:46.660Z,1.02
2023-01-11T00:36:12.917Z,1.06
2023-01-11T00:38:39.176Z,1.02
2023-01-11T00:41:05.435Z,0.92
2023-01-11T00:43:31.708Z,0.92
2023-01-11T00:45:57.984Z,0.98
2023-01-11T00:48:24.272Z,1.02
2023-01-11T00:50:50.526Z,0.92
2023-01-11T00:53:16.783Z,0.90
2023-01-11T00:55:43.056Z,0.71
2023-01-11T00:58:09.429Z,0.91
2023-01-11T01:00:35.694Z,0.80
2023-01-11T01:03:01.950Z,0.88
2023-01-11T01:05:28.316Z,0.87
2023-01-11T01:07:54.573Z,0.82
2023-01-11T01:10:20.837Z,0.91
2023-01-11T01:12:47.141Z,0.78
2023-01-11T01:15:13.396Z,1.04
2023-01-11T01:17:39.661Z,0.82
2023-01-11T01:20:05.934Z,0.77
2023-01-11T01:22:32.186Z,0.77
2023-01-11T01:24:58.465Z,0.74
2023-01-11T01:27:24.726Z,0.74
2023-01-11T01:29:51.020Z,0.71
2023-01-11T01:32:17.293Z,0.85
2023-01-11T01:34:43.564Z,0.79
2023-01-11T01:37:09.833Z,0.66
2023-01-11T01:39:36.083Z,0.68
2023-01-11T01:42:02.369Z,0.67
2023-01-11T01:44:28.625Z,0.80
2023-01-11T01:46:54.880Z,0.67
2023-01-11T01:49:21.158Z,0.65
2023-01-11T01:51:47.420Z,0.71
2023-01-11T01:54:13.677Z,0.70
2023-01-11T01:56:39.939Z,0.59
2023-01-11T01:59:06.183Z,0.56
2023-01-11T02:01:32.477Z,0.55
2023-01-11T02:03:58.818Z,0.53
2023-01-11T02:06:25.102Z,0.61
2023-01-11T02:08:51.346Z,0.51
2023-01-11T02:11:17.626Z,0.53
2023-01-11T02:13:43.864Z,0.54
2023-01-11T02:16:10.144Z,0.53
2023-01-11T02:18:36.539Z,0.56
2023-01-11T02:21:02.861Z,0.51
2023-01-11T02:23:29.127Z,0.52
2023-01-11T02:25:55.399Z,0.46
2023-01-11T02:28:21.652Z,0.53
2023-01-11T02:30:47.907Z,0.42
2023-01-11T02:33:14.161Z,0.45
2023-01-11T02:35:40.411Z,0.39
2023-01-11T02:38:06.692Z,0.45
2023-01-11T02:40:32.936Z,0.43
2023-01-11T02:42:59.196Z,0.36
2023-01-11T02:45:25.452Z,0.42
2023-01-11T02:47:51.700Z,0.36
2023-01-11T02:50:17.989Z,0.35
2023-01-11T02:52:44.259Z,0.37
2023-01-11T02:55:10.515Z,0.40
2023-01-11T02:57:36.770Z,0.37
2023-01-11T03:00:03.019Z,0.44
2023-01-11T03:02:29.341Z,0.33
2023-01-11T03:04:55.722Z,0.32
2023-01-11T03:07:21.971Z,0.46
2023-01-11T03:09:48.237Z,0.37
2023-01-11T03:12:14.506Z,0.30
2023-01-11T03:14:40.765Z,0.31
2023-01-11T03:17:07.025Z,0.31
2023-01-11T03:19:33.292Z,0.27
2023-01-11T03:21:59.543Z,0.23
2023-01-11T03:24:25.802Z,0.28
2023-01-11T03:26:52.069Z,0.28
2023-01-11T03:29:18.314Z,0.34
2023-01-11T03:31:44.586Z,0.32
2023-01-11T03:34:10.893Z,0.23
2023-01-11T03:36:37.146Z,0.24
2023-01-11T03:39:03.400Z,0.25
2023-01-11T03:41:29.666Z,0.22
2023-01-11T03:43:55.908Z,0.30
2023-01-11T03:46:22.193Z,0.22
2023-01-11T03:48:48.556Z,0.38
2023-01-11T03:51:14.836Z,0.28
2023-01-11T03:53:41.119Z,0.31
2023-01-11T03:56:07.382Z,0.26
2023-01-11T03:58:33.627Z,0.29
2023-01-11T04:01:00.014Z,0.25
2023-01-11T04:03:27.327Z,0.29
2023-01-11T04:05:53.608Z,0.33
2023-01-11T04:08:19.923Z,0.19
2023-01-11T04:10:46.177Z,0.27
2023-01-11T04:13:12.447Z,0.19
2023-01-11T04:15:38.697Z,0.24
2023-01-11T04:18:05.062Z,0.21
2023-01-11T04:20:31.322Z,0.30
2023-01-11T04:22:57.579Z,0.21
2023-01-11T04:25:23.852Z,0.17
2023-01-11T04:27:50.095Z,0.22
2023-01-11T04:30:16.396Z,0.23
2023-01-11T04:32:42.664Z,0.18
2023-01-11T04:35:08.947Z,0.25
2023-01-11T04:37:35.188Z,0.27
2023-01-11T04:40:01.445Z,0.21
2023-01-11T04:42:27.693Z,0.24
2023-01-11T04:44:53.965Z,0.23
2023-01-11T04:47:20.212Z,0.21
2023-01-11T04:49:46.494Z,0.17
2023-01-11T04:52:12.753Z,0.14
2023-01-11T04:54:39.019Z,0.15
2023-01-11T04:57:05.319Z,0.18
2023-01-11T04:59:31.569Z,0.18
2023-01-11T05:01:57.828Z,0.18
2023-01-11T05:04:24.144Z,0.21
2023-01-11T05:06:50.605Z,0.26
2023-01-11T05:09:17.003Z,0.19
2023-01-11T05:11:43.384Z,0.22
2023-01-11T05:14:09.724Z,0.15
2023-01-11T05:16:36.134Z,0.17
2023-01-11T05:19:02.529Z,0.21
2023-01-11T05:21:28.890Z,0.32
2023-01-11T05:23:55.238Z,0.23
2023-01-11T05:26:21.585Z,0.22
2023-01-11T05:28:47.927Z,0.27
2023-01-11T05:31:14.398Z,0.26
2023-01-11T05:33:40.761Z,0.27
2023-01-11T05:36:07.212Z,0.25
2023-01-11T05:38:33.693Z,0.29
2023-01-11T05:41:00.047Z,0.31
2023-01-11T05:43:26.404Z,0.38
2023-01-11T05:45:52.862Z,0.41
2023-01-11T05:48:19.283Z,0.39
2023-01-11T05:50:45.639Z,0.29
2023-01-11T05:53:12.023Z,0.44
2023-01-11T05:55:38.386Z,0.46
2023-01-11T05:58:04.746Z,0.45
2023-01-11T06:00:31.124Z,0.42
2023-01-11T06:02:57.546Z,0.51
2023-01-11T06:05:23.937Z,0.46
2023-01-11T06:07:50.322Z,0.51
2023-01-11T06:10:16.690Z,0.56
2023-01-11T06:12:43.073Z,0.54
2023-01-11T06:15:09.443Z,0.56
2023-01-11T06:17:35.799Z,0.56
2023-01-11T06:20:02.150Z,0.54
2023-01-11T06:22:28.495Z,0.75
2023-01-11T06:24:54.852Z,0.64
2023-01-11T06:27:21.263Z,0.64
2023-01-11T06:29:47.636Z,0.74
2023-01-11T06:32:14.008Z,0.80
2023-01-11T06:34:40.368Z,0.77
2023-01-11T06:37:06.745Z,0.70
2023-01-11T06:39:33.098Z,0.84
2023-01-11T06:41:59.451Z,0.75
2023-01-11T06:44:25.798Z,0.90
2023-01-11T06:46:52.199Z,0.87
2023-01-11T06:49:18.553Z,0.82
2023-01-11T06:51:44.901Z,0.79
2023-01-11T06:54:11.266Z,1.01
2023-01-11T06:56:37.634Z,0.93
2023-01-11T06:59:04.016Z,1.03
2023-01-11T07:01:30.571Z,0.83
2023-01-11T07:03:57.165Z,0.99
2023-01-11T07:06:23.529Z,1.11
2023-01-11T07:08:49.896Z,1.00
2023-01-11T07:11:16.290Z,0.91
2023-01-11T07:13:42.697Z,0.93
2023-01-11T07:16:09.097Z,0.99
2023-01-11T07:18:35.481Z,1.04
2023-01-11T07:21:01.860Z,0.94
2023-01-11T07:23:28.233Z,0.91
2023-01-11T07:25:54.641Z,1.13
2023-01-11T07:28:21.074Z,1.18
2023-01-11T07:30:58.097Z,1.25
2023-01-11T07:33:24.875Z,1.13
2023-01-11T07:35:51.237Z,1.30
2023-01-11T07:38:17.587Z,1.24
2023-01-11T07:40:43.970Z,1.21
2023-01-11T07:43:10.353Z,1.25
2023-01-11T07:45:45.464Z,1.31
2023-01-11T07:48:12.427Z,1.24
2023-01-11T07:50:38.795Z,1.28
2023-01-11T07:53:05.178Z,1.24
2023-01-11T07:55:31.553Z,1.21
2023-01-11T07:57:57.936Z,1.24
2023-01-11T08:00:24.313Z,1.38
2023-01-11T08:02:52.267Z,1.33
2023-01-11T08:05:18.667Z,1.50
2023-01-11T08:07:45.065Z,1.58
2023-01-11T08:10:11.417Z,1.34
2023-01-11T08:12:37.799Z,1.34
2023-01-11T08:15:04.186Z,1.41
2023-01-11T08:17:30.554Z,1.54
2023-01-11T08:19:56.998Z,1.22
2023-01-11T08:22:23.364Z,1.32
2023-01-11T08:24:49.733Z,1.50
2023-01-11T08:27:16.079Z,1.40
2023-01-11T08:29:42.426Z,1.38
2023-01-11T08:32:08.820Z,1.57
2023-01-11T08:34:35.228Z,1.61
2023-01-11T08:37:01.651Z,1.47
2023-01-11T08:39:28.035Z,1.67
2023-01-11T08:41:54.398Z,1.45
2023-01-11T08:44:33.301Z,1.44
2023-01-11T08:47:00.637Z,1.51
2023-01-11T08:49:27.013Z,1.37
2023-01-11T08:51:53.416Z,1.38
2023-01-11T08:54:19.815Z,1.61
2023-01-11T08:56:46.199Z,1.69
2023-01-11T08:59:12.666Z,1.88
2023-01-11T09:01:39.095Z,1.59
2023-01-11T09:04:15.802Z,1.81
2023-01-11T09:06:49.664Z,1.70
2023-01-11T09:09:16.073Z,1.76
2023-01-11T09:11:42.546Z,1.94
2023-01-11T09:14:08.925Z,1.84
2023-01-11T09:16:35.311Z,1.82
2023-01-11T09:19:01.680Z,1.93
2023-01-11T09:21:28.059Z,1.84
2023-01-11T09:23:54.438Z,2.00
2023-01-11T09:26:20.826Z,1.98
2023-01-11T09:28:47.353Z,1.90
2023-01-11T09:31:13.777Z,2.16
2023-01-11T09:33:40.207Z,2.03
2023-01-11T09:36:06.581Z,2.20
2023-01-11T09:38:32.948Z,2.14
2023-01-11T09:40:59.303Z,2.02
2023-01-11T09:43:25.780Z,1.81
2023-01-11T09:45:52.263Z,1.96
2023-01-11T09:48:18.651Z,1.96
2023-01-11T09:50:45.025Z,2.06
2023-01-11T09:53:11.426Z,1.97
2023-01-11T09:55:37.800Z,2.15
2023-01-11T09:58:04.193Z,2.17
2023-01-11T10:00:30.587Z,2.08
2023-01-11T10:02:56.945Z,2.13
2023-01-11T10:05:23.346Z,2.30
2023-01-11T10:07:49.694Z,2.16
2023-01-11T10:18:22.776Z,2.02
2023-01-11T10:18:57.959Z,2.44
2023-01-11T10:21:21.422Z,2.11
2023-01-11T10:23:47.836Z,2.09
2023-01-11T10:26:14.198Z,2.08
2023-01-11T10:28:40.561Z,2.15
2023-01-11T10:31:06.986Z,2.06
2023-01-11T10:33:33.361Z,1.92
2023-01-11T10:35:59.758Z,2.08
2023-01-11T10:38:26.132Z,1.98
2023-01-11T10:40:52.495Z,2.08
2023-01-11T10:43:18.852Z,2.17
2023-01-11T10:45:45.252Z,2.16
2023-01-11T10:48:11.692Z,2.28
2023-01-11T10:50:38.048Z,2.07
2023-01-11T10:53:04.398Z,1.90
2023-01-11T10:55:30.778Z,2.27
2023-01-11T10:58:00.440Z,2.21
2023-01-11T11:00:29.897Z,2.21
2023-01-11T11:02:56.263Z,2.08
2023-01-11T11:05:22.632Z,2.21
2023-01-11T11:07:49.112Z,2.07
2023-01-11T11:10:15.472Z,2.26
2023-01-11T11:12:41.823Z,2.09
2023-01-11T11:15:08.242Z,2.33
2023-01-11T11:17:34.607Z,2.13
2023-01-11T11:20:00.977Z,2.27
2023-01-11T11:22:27.376Z,2.40
2023-01-11T11:24:53.746Z,2.20
2023-01-11T11:27:20.117Z,2.07
2023-01-11T11:29:46.496Z,2.06
2023-01-11T11:32:12.866Z,1.92
2023-01-11T11:34:39.238Z,2.03
2023-01-11T11:37:05.598Z,2.24
2023-01-11T11:39:31.992Z,2.06
2023-01-11T11:41:58.345Z,1.96
2023-01-11T11:44:24.795Z,2.26
2023-01-11T11:46:51.252Z,2.21
2023-01-11T11:49:17.614Z,2.05
2023-01-11T11:51:43.977Z,2.15
2023-01-11T11:54:10.331Z,2.43
2023-01-11T11:56:36.705Z,2.15
2023-01-11T11:59:03.096Z,2.04
2023-01-11T12:01:29.477Z,1.99
2023-01-11T12:03:55.849Z,2.08
2023-01-11T12:06:22.196Z,1.92
2023-01-11T12:08:48.573Z,1.99
2023-01-11T12:11:14.956Z,2.05
2023-01-11T12:13:41.319Z,1.97
2023-01-11T12:16:07.695Z,1.88
2023-01-11T12:18:34.134Z,1.91
2023-01-11T12:21:00.500Z,1.83
2023-01-11T12:23:26.873Z,1.88
2023-01-11T12:25:53.269Z,2.02
2023-01-11T12:28:19.628Z,2.06
2023-01-11T12:30:46.075Z,2.12
2023-01-11T12:33:12.503Z,2.30
2023-01-11T12:35:38.901Z,2.18
2023-01-11T12:38:05.290Z,2.07
2023-01-11T12:40:31.648Z,2.22
2023-01-11T12:42:58.029Z,1.93
2023-01-11T12:45:24.417Z,2.25
2023-01-11T12:47:50.793Z,2.04
2023-01-11T12:50:17.177Z,2.04
2023-01-11T12:52:43.605Z,1.93
2023-01-11T12:55:09.966Z,2.02
2023-01-11T12:57:36.338Z,1.95
2023-01-11T13:00:02.686Z,1.87
2023-01-11T13:02:29.157Z,2.05
2023-01-11T13:04:55.565Z,1.97
2023-01-11T13:07:21.915Z,1.94
2023-01-11T13:09:48.309Z,1.87
2023-01-11T13:12:14.672Z,2.17
2023-01-11T13:14:41.053Z,2.00
2023-01-11T13:17:07.496Z,2.00
2023-01-11T13:19:33.895Z,2.09
2023-01-11T13:22:00.291Z,2.17
2023-01-11T13:24:26.673Z,2.39
2023-01-11T13:26:53.070Z,2.34
2023-01-11T13:29:19.478Z,2.37
2023-01-11T13:31:45.861Z,2.16
2023-01-11T13:34:12.245Z,2.39
2023-01-11T13:36:38.656Z,2.37
2023-01-11T13:39:05.043Z,2.23
2023-01-11T13:41:31.409Z,2.10
2023-01-11T13:43:57.796Z,2.20
2023-01-11T13:46:24.190Z,2.12
2023-01-11T13:48:50.591Z,2.20
2023-01-11T13:51:17.008Z,2.20
2023-01-11T13:53:43.368Z,2.24
2023-01-11T13:56:09.742Z,2.42
2023-01-11T13:58:37.024Z,2.33
2023-01-11T14:01:03.595Z,2.54
2023-01-11T14:03:30.093Z,2.16
2023-01-11T14:05:56.487Z,2.12
2023-01-11T14:08:22.876Z,2.09
2023-01-11T14:10:49.241Z,2.00
2023-01-11T14:13:15.616Z,2.11
2023-01-11T14:15:42.068Z,2.12
2023-01-11T14:18:08.508Z,2.31
2023-01-11T14:20:34.880Z,2.41
2023-01-11T14:23:01.228Z,2.01
2023-01-11T14:25:27.610Z,2.07
2023-01-11T14:27:53.977Z,2.11
2023-01-11T14:30:20.348Z,1.97
2023-01-11T14:32:46.717Z,2.12
2023-01-11T14:35:13.099Z,2.32
2023-01-11T14:37:39.472Z,2.10
2023-01-11T14:40:05.847Z,2.25
2023-01-11T14:42:35.271Z,2.38
2023-01-11T14:45:02.125Z,2.31
2023-01-11T14:47:28.508Z,2.27
2023-01-11T14:49:54.873Z,2.32
2023-01-11T14:52:25.517Z,2.25
2023-01-11T14:55:00.954Z,2.39
2023-01-11T14:57:27.339Z,2.05
2023-01-11T14:59:53.709Z,2.18
2023-01-11T15:02:20.063Z,2.25
2023-01-11T15:04:46.511Z,2.13
2023-01-11T15:07:12.908Z,2.19
2023-01-11T15:09:39.285Z,2.32
2023-01-11T15:12:05.653Z,2.22
2023-01-11T15:14:32.059Z,2.28
2023-01-11T15:16:58.464Z,2.25
2023-01-11T15:19:24.822Z,2.24
2023-01-11T15:21:51.189Z,2.23
2023-01-11T15:24:17.561Z,2.38
2023-01-11T15:26:44.078Z,1.96
2023-01-11T15:29:10.528Z,2.30
2023-01-11T15:31:36.971Z,2.26
2023-01-11T15:34:03.393Z,2.42
2023-01-11T15:36:29.828Z,2.48
2023-01-11T15:38:56.191Z,2.08
2023-01-11T15:41:22.581Z,2.46
2023-01-11T15:43:48.990Z,2.15
2023-01-11T15:46:15.379Z,2.30
2023-01-11T15:48:41.778Z,2.48
2023-01-11T15:51:08.175Z,2.25
2023-01-11T15:53:34.535Z,2.37
2023-01-11T15:56:00.933Z,2.20
2023-01-11T15:58:27.311Z,2.29
2023-01-11T16:00:53.701Z,2.52
2023-01-11T16:03:20.099Z,2.27
2023-01-11T16:05:46.441Z,2.41
2023-01-11T16:08:12.875Z,2.47
2023-01-11T16:10:39.282Z,2.55
2023-01-11T16:13:05.691Z,2.59
2023-01-11T16:15:32.063Z,2.53
2023-01-11T16:17:58.438Z,2.67
2023-01-11T16:20:24.848Z,2.86
2023-01-11T16:22:51.208Z,2.72
2023-01-11T16:25:17.598Z,2.81
2023-01-11T16:27:43.955Z,2.81
2023-01-11T16:30:10.333Z,2.71
2023-01-11T16:32:36.725Z,2.64
2023-01-11T16:35:03.098Z,2.50
2023-01-11T16:37:29.451Z,2.69
2023-01-11T16:39:55.828Z,2.79
2023-01-11T16:42:22.237Z,2.95
2023-01-11T16:44:48.590Z,2.89
2023-01-11T16:47:14.935Z,2.89
2023-01-11T16:49:41.325Z,2.73
2023-01-11T16:52:07.696Z,2.69
2023-01-11T16:54:34.067Z,2.79
2023-01-11T16:57:00.465Z,2.59
2023-01-11T16:59:26.909Z,2.91
2023-01-11T17:01:53.352Z,2.78
2023-01-11T17:04:19.790Z,2.86
2023-01-11T17:06:46.172Z,2.85
2023-01-11T17:09:19.441Z,2.81
2023-01-11T17:11:46.040Z,2.71
2023-01-11T17:14:12.520Z,2.85
2023-01-11T17:16:39.142Z,2.94
2023-01-11T17:19:05.593Z,2.71
2023-01-11T17:21:31.969Z,2.95
2023-01-11T17:23:58.361Z,2.72
2023-01-11T17:26:24.761Z,2.84
2023-01-11T17:28:51.144Z,2.84
2023-01-11T17:31:18.456Z,3.08
2023-01-11T17:33:44.817Z,2.94
2023-01-11T17:36:11.174Z,2.76
2023-01-11T17:38:37.637Z,2.75
2023-01-11T17:41:04.032Z,2.94
2023-01-11T17:43:30.398Z,2.66
2023-01-11T17:45:56.886Z,2.79
2023-01-11T17:48:23.330Z,2.90
2023-01-11T17:50:49.718Z,2.69
2023-01-11T17:53:16.082Z,2.77
2023-01-11T17:55:42.457Z,3.03
2023-01-11T17:58:08.807Z,2.90
2023-01-11T18:00:35.196Z,2.73
2023-01-11T18:03:01.562Z,2.82
2023-01-11T18:05:27.958Z,2.94
2023-01-11T18:07:54.354Z,2.87
2023-01-11T18:10:20.711Z,2.90
2023-01-11T18:12:47.085Z,3.01
2023-01-11T18:15:13.454Z,2.96
2023-01-11T18:17:39.792Z,2.99
2023-01-11T18:20:06.275Z,2.93
2023-01-11T18:22:32.646Z,2.98
2023-01-11T18:24:59.025Z,3.08
2023-01-11T18:27:25.396Z,2.84
2023-01-11T18:29:51.771Z,2.73
2023-01-11T18:32:18.120Z,2.98
2023-01-11T18:34:44.501Z,3.11
2023-01-11T18:37:10.885Z,3.02
2023-01-11T18:39:37.250Z,3.05
2023-01-11T18:42:03.658Z,3.10
2023-01-11T18:44:30.060Z,2.95
2023-01-11T18:46:56.435Z,3.26
2023-01-11T18:49:22.772Z,5.10
2023-01-11T18:51:49.170Z,6.38
2023-01-11T18:54:15.536Z,6.80
2023-01-11T18:56:41.930Z,5.68
2023-01-11T18:59:08.318Z,5.41
2023-01-11T19:01:46.883Z,5.13
2023-01-11T19:04:20.648Z,5.12
2023-01-11T19:06:47.012Z,4.98
2023-01-11T19:09:13.381Z,5.02
2023-01-11T19:11:39.768Z,4.92
2023-01-11T19:14:06.146Z,4.69
2023-01-11T19:16:32.510Z,4.59
2023-01-11T19:18:58.880Z,4.56
2023-01-11T19:21:25.353Z,4.50
2023-01-11T19:23:51.847Z,4.52
2023-01-11T19:26:18.224Z,4.50
2023-01-11T19:28:44.581Z,4.74
2023-01-11T19:31:11.031Z,4.61
2023-01-11T19:33:37.421Z,4.44
2023-01-11T19:36:03.774Z,4.70
2023-01-11T19:38:30.147Z,4.44
2023-01-11T19:40:56.507Z,4.66
2023-01-11T19:43:22.876Z,4.67
2023-01-11T19:45:49.281Z,5.05
2023-01-11T19:48:15.732Z,4.98
2023-01-11T19:50:42.093Z,5.23
2023-01-11T19:53:08.446Z,5.02
2023-01-11T19:55:34.840Z,5.32
2023-01-11T19:58:01.220Z,5.45
2023-01-11T20:00:27.573Z,5.70
2023-01-11T20:02:53.984Z,5.79
2023-01-11T20:05:20.378Z,5.53
2023-01-11T20:07:46.747Z,5.74
2023-01-11T20:10:13.139Z,6.03
2023-01-11T20:12:39.499Z,6.02
2023-01-11T20:15:05.862Z,6.07
2023-01-11T20:17:32.256Z,6.32
2023-01-11T20:19:58.651Z,6.36
2023-01-11T20:22:25.036Z,6.48
2023-01-11T20:24:51.451Z,6.50
2023-01-11T20:27:17.836Z,6.85
2023-01-11T20:29:44.244Z,6.88
2023-01-11T20:32:35.018Z,7.02
2023-01-11T20:34:56.991Z,7.15
2023-01-11T20:37:23.400Z,7.23
2023-01-11T20:39:49.762Z,7.04
2023-01-11T20:42:16.131Z,7.01
2023-01-11T20:44:42.511Z,7.10
2023-01-11T20:47:08.881Z,7.31
2023-01-11T20:49:35.245Z,7.40
2023-01-11T20:52:01.631Z,7.34
2023-01-11T20:54:28.069Z,7.41
2023-01-11T20:56:54.438Z,7.32
2023-01-11T20:59:20.794Z,7.68
2023-01-11T21:01:47.246Z,7.59
2023-01-11T21:04:13.642Z,6.90
2023-01-11T21:06:40.010Z,7.02
2023-01-11T21:09:06.394Z,6.92
2023-01-11T21:11:32.785Z,6.72
2023-01-11T21:13:59.176Z,6.72
2023-01-11T21:16:25.665Z,6.86
2023-01-11T21:18:52.116Z,6.83
2023-01-11T21:21:18.486Z,7.24
2023-01-11T21:23:44.838Z,7.02
2023-01-11T21:26:11.221Z,7.07
2023-01-11T21:28:37.620Z,6.60
2023-01-11T21:31:04.059Z,6.91
2023-01-11T21:33:30.467Z,6.66
2023-01-11T21:35:56.825Z,6.31
2023-01-11T21:38:23.173Z,6.63
2023-01-11T21:40:49.553Z,6.56
2023-01-11T21:43:15.934Z,6.13
2023-01-11T21:45:42.295Z,6.36
2023-01-11T21:48:08.684Z,6.24
2023-01-11T21:50:35.121Z,6.31
2023-01-11T21:53:01.558Z,6.13
2023-01-11T21:55:27.906Z,6.13
2023-01-11T21:57:54.277Z,6.12
2023-01-11T22:00:20.649Z,6.23
2023-01-11T22:02:46.998Z,5.68
2023-01-11T22:05:13.375Z,5.63
2023-01-11T22:07:39.729Z,5.66
2023-01-11T22:10:06.121Z,5.74
2023-01-11T22:12:32.505Z,5.43
2023-01-11T22:14:58.871Z,5.41
2023-01-11T22:17:25.346Z,5.66
2023-01-11T22:19:51.705Z,5.19
2023-01-11T22:22:18.100Z,5.26
2023-01-11T22:24:44.486Z,5.15
2023-01-11T22:27:12.023Z,5.05
2023-01-11T22:29:38.430Z,5.16
2023-01-11T22:32:04.794Z,4.95
2023-01-11T22:34:31.151Z,5.13
2023-01-11T22:36:57.514Z,4.89
2023-01-11T22:39:23.890Z,4.93
2023-01-11T22:41:50.258Z,4.74
2023-01-11T22:44:16.650Z,4.71
2023-01-11T22:46:43.025Z,4.50
2023-01-11T22:49:09.422Z,4.97
2023-01-11T22:51:35.837Z,4.43
2023-01-11T22:54:02.236Z,4.42
2023-01-11T22:56:28.603Z,4.29
2023-01-11T22:58:54.962Z,4.39
2023-01-11T23:01:21.325Z,4.12
2023-01-11T23:03:47.889Z,4.33
2023-01-11T23:06:14.317Z,4.18
2023-01-11T23:08:40.768Z,4.18
2023-01-11T23:11:07.156Z,4.00
2023-01-11T23:13:33.538Z,3.85
2023-01-11T23:15:59.931Z,3.82
2023-01-11T23:18:26.309Z,3.91
2023-01-11T23:20:52.687Z,3.56
2023-01-11T23:23:19.037Z,3.65
2023-01-11T23:25:45.421Z,3.76
2023-01-11T23:28:11.837Z,3.71
2023-01-11T23:30:38.215Z,3.67
2023-01-11T23:33:04.574Z,3.57
2023-01-11T23:35:30.959Z,3.23
2023-01-11T23:37:57.344Z,3.31
2023-01-11T23:40:23.714Z,3.56
2023-01-11T23:42:50.077Z,3.50
2023-01-11T23:45:16.432Z,3.28
2023-01-11T23:47:42.789Z,3.25
2023-01-11T23:50:09.145Z,3.16
2023-01-11T23:52:35.524Z,3.57
2023-01-11T23:55:01.994Z,3.21
2023-01-11T23:57:28.368Z,3.04
2023-01-11T23:59:54.742Z,3.29
